Time;durP1;ratioP1;P1;durP2;ratioP2;P2;SDS_P1;SDS_P2;PMS_P1;PMS_P2;Temp;Humidity;BMP_temperature;BMP_pressure;BME280_temperature;BME280_humidity;BME280_pressure;Samples;Min_cycle;Max_cycle;Signal;HPM_P1;HPM_P2
2023/01/23 00:01:11;;;;;;;;;53.33;41.33;;;;;;;;5088360;28;8821;-85
2023/01/23 00:03:38;;;;;;;;;46.33;37.33;;;;;;;;5087674;28;9611;-84
2023/01/23 00:06:09;;;;;;;;;45.00;39.33;;;;;;;;5086919;28;9789;-85
2023/01/23 00:08:41;;;;;;;;;58.67;43.00;;;;;;;;5088825;28;8846;-85
2023/01/23 00:11:09;;;;;;;;;44.33;39.67;;;;;;;;5089317;28;8871;-85
2023/01/23 00:13:37;;;;;;;;;49.67;41.33;;;;;;;;5079337;28;8868;-84
2023/01/23 00:16:07;;;;;;;;;66.00;48.33;;;;;;;;5082906;28;8855;-85
2023/01/23 00:18:35;;;;;;;;;46.00;41.67;;;;;;;;5072859;28;8868;-85
2023/01/23 00:21:07;;;;;;;;;52.33;41.67;;;;;;;;5083424;28;8826;-85
2023/01/23 00:23:35;;;;;;;;;55.33;43.33;;;;;;;;5083863;28;8859;-84
2023/01/23 00:26:06;;;;;;;;;44.33;40.33;;;;;;;;5093120;28;8946;-85
2023/01/23 00:28:36;;;;;;;;;54.67;45.67;;;;;;;;5090954;28;8848;-85
2023/01/23 00:31:06;;;;;;;;;49.67;44.67;;;;;;;;5085244;27;8803;-84
2023/01/23 00:33:35;;;;;;;;;60.67;46.67;;;;;;;;5092698;28;8955;-85
2023/01/23 00:36:03;;;;;;;;;49.00;44.00;;;;;;;;5090400;28;9596;-85
2023/01/23 00:38:31;;;;;;;;;53.67;43.00;;;;;;;;5082834;28;8850;-85
2023/01/23 00:40:59;;;;;;;;;56.33;46.33;;;;;;;;5075202;28;8828;-85
2023/01/23 00:43:26;;;;;;;;;49.67;43.33;;;;;;;;5085457;28;8818;-85
2023/01/23 00:45:54;;;;;;;;;41.33;37.33;;;;;;;;5093021;28;8965;-84
2023/01/23 00:48:23;;;;;;;;;40.00;40.00;;;;;;;;5084540;28;8874;-85
2023/01/23 00:50:51;;;;;;;;;53.67;45.33;;;;;;;;5082683;28;8828;-84
2023/01/23 00:53:18;;;;;;;;;56.67;42.33;;;;;;;;5083585;28;8847;-84
2023/01/23 00:55:46;;;;;;;;;54.33;41.67;;;;;;;;5068943;28;8856;-85
2023/01/23 00:58:14;;;;;;;;;50.00;42.33;;;;;;;;5081893;28;8870;-84
2023/01/23 01:00:41;;;;;;;;;50.33;43.00;;;;;;;;5067049;28;8812;-84
2023/01/23 01:03:09;;;;;;;;;59.00;45.00;;;;;;;;5089845;28;8836;-85
2023/01/23 01:05:38;;;;;;;;;43.33;37.33;;;;;;;;5089059;28;8844;-85
2023/01/23 01:08:06;;;;;;;;;49.67;44.00;;;;;;;;5087489;28;8854;-84
2023/01/23 01:10:36;;;;;;;;;54.33;45.67;;;;;;;;5086277;28;8852;-85
2023/01/23 01:13:04;;;;;;;;;46.33;36.33;;;;;;;;5083581;28;9624;-85
2023/01/23 01:15:32;;;;;;;;;60.67;48.00;;;;;;;;5090380;28;8873;-85
2023/01/23 01:18:00;;;;;;;;;55.00;45.67;;;;;;;;5074048;28;8855;-85
2023/01/23 01:20:28;;;;;;;;;49.67;43.67;;;;;;;;5084618;28;8852;-85
2023/01/23 01:22:59;;;;;;;;;57.00;44.33;;;;;;;;5092920;28;8838;-85
2023/01/23 01:25:27;;;;;;;;;55.33;43.33;;;;;;;;5086619;28;8843;-85
2023/01/23 01:27:54;;;;;;;;;20.00;17.33;;;;;;;;5083633;28;8874;-85
2023/01/23 01:30:22;;;;;;;;;57.00;46.33;;;;;;;;5089921;27;8902;-85
2023/01/23 01:32:49;;;;;;;;;61.67;48.00;;;;;;;;5086473;28;8877;-84
2023/01/23 01:35:17;;;;;;;;;59.67;45.67;;;;;;;;5086343;28;8846;-84
2023/01/23 01:37:44;;;;;;;;;44.67;41.67;;;;;;;;5089566;28;8890;-84
2023/01/23 01:40:17;;;;;;;;;58.00;44.67;;;;;;;;5090650;28;8843;-84
2023/01/23 01:42:47;;;;;;;;;64.67;50.00;;;;;;;;5087735;28;8858;-84
2023/01/23 01:45:52;;;;;;;;;55.67;43.00;;;;;;;;5091386;28;8874;-84
2023/01/23 01:48:22;;;;;;;;;54.67;42.33;;;;;;;;5084710;28;8858;-84
2023/01/23 01:50:49;;;;;;;;;61.33;48.67;;;;;;;;5087472;28;8836;-84
2023/01/23 01:53:17;;;;;;;;;58.33;47.33;;;;;;;;5087268;28;8870;-84
2023/01/23 01:55:47;;;;;;;;;49.67;46.00;;;;;;;;5080203;28;8839;-84
2023/01/23 01:58:14;;;;;;;;;53.33;43.00;;;;;;;;5070751;28;8862;-84
2023/01/23 02:00:42;;;;;;;;;36.33;36.33;;;;;;;;5081121;28;8786;-84
2023/01/23 02:03:10;;;;;;;;;50.33;40.67;;;;;;;;5086333;28;8866;-85
2023/01/23 02:05:42;;;;;;;;;66.33;47.67;;;;;;;;5070916;28;8837;-85
2023/01/23 02:08:14;;;;;;;;;55.00;45.00;;;;;;;;5087966;28;8844;-84
2023/01/23 02:10:43;;;;;;;;;47.00;41.67;;;;;;;;5084673;28;8854;-85
2023/01/23 02:13:31;;;;;;;;;55.00;43.33;;;;;;;;5091125;28;8858;-85
2023/01/23 02:16:00;;;;;;;;;53.67;41.67;;;;;;;;5089832;28;8844;-85
2023/01/23 02:18:29;;;;;;;;;52.00;40.00;;;;;;;;5092022;28;8860;-85
2023/01/23 02:20:58;;;;;;;;;49.33;38.67;;;;;;;;5076288;28;8955;-85
2023/01/23 02:23:33;;;;;;;;;54.67;38.67;;;;;;;;5085586;28;8882;-85
2023/01/23 02:26:05;;;;;;;;;49.67;39.00;;;;;;;;5087027;28;9742;-85
2023/01/23 02:28:41;;;;;;;;;36.67;34.00;;;;;;;;5085654;28;8850;-85
2023/01/23 02:31:09;;;;;;;;;60.33;40.00;;;;;;;;5083264;28;8887;-85
2023/01/23 02:33:58;;;;;;;;;48.67;42.33;;;;;;;;5089345;28;8858;-85
2023/01/23 02:36:28;;;;;;;;;42.67;39.33;;;;;;;;5065862;28;8862;-85
2023/01/23 02:39:03;;;;;;;;;59.67;46.33;;;;;;;;5088576;28;8836;-84
2023/01/23 02:41:34;;;;;;;;;49.67;43.67;;;;;;;;5081643;28;8861;-85
2023/01/23 02:44:05;;;;;;;;;61.67;47.00;;;;;;;;5092339;28;8872;-85
2023/01/23 02:46:33;;;;;;;;;56.67;48.67;;;;;;;;5085095;28;8830;-84
2023/01/23 02:49:01;;;;;;;;;55.33;44.00;;;;;;;;5089893;28;8858;-85
2023/01/23 02:51:29;;;;;;;;;47.67;43.33;;;;;;;;5087569;28;8868;-85
2023/01/23 02:53:56;;;;;;;;;59.33;46.00;;;;;;;;5084692;28;8868;-85
2023/01/23 02:56:24;;;;;;;;;52.67;43.00;;;;;;;;5085579;28;8862;-85
2023/01/23 03:01:38;;;;;;;;;57.00;45.00;;;;;;;;5088573;28;8787;-85
2023/01/23 03:04:09;;;;;;;;;48.00;37.67;;;;;;;;5089572;28;9602;-84
2023/01/23 03:06:39;;;;;;;;;70.33;52.67;;;;;;;;5086694;28;8866;-84
2023/01/23 03:09:12;;;;;;;;;49.67;41.00;;;;;;;;5084989;28;8870;-85
2023/01/23 03:11:41;;;;;;;;;61.33;44.00;;;;;;;;5090396;28;9595;-85
2023/01/23 03:14:13;;;;;;;;;48.67;43.33;;;;;;;;5089510;28;9015;-85
2023/01/23 03:16:41;;;;;;;;;48.00;44.67;;;;;;;;5086267;28;8855;-85
2023/01/23 03:19:10;;;;;;;;;53.67;42.00;;;;;;;;5080103;28;8842;-85
2023/01/23 03:21:39;;;;;;;;;58.00;45.00;;;;;;;;5085741;28;8849;-85
2023/01/23 03:24:07;;;;;;;;;62.67;51.33;;;;;;;;5065465;28;8880;-85
2023/01/23 03:26:37;;;;;;;;;60.33;44.00;;;;;;;;5083237;28;8817;-85
2023/01/23 03:31:51;;;;;;;;;60.33;44.33;;;;;;;;5083388;28;8812;-85
2023/01/23 03:34:21;;;;;;;;;60.00;49.00;;;;;;;;5089680;28;8860;-84
2023/01/23 03:36:49;;;;;;;;;55.67;44.33;;;;;;;;5087609;28;8897;-84
2023/01/23 03:42:02;;;;;;;;;59.33;47.00;;;;;;;;5083443;28;8823;-84
2023/01/23 03:44:29;;;;;;;;;61.33;46.00;;;;;;;;5088582;28;8840;-86
2023/01/23 03:46:59;;;;;;;;;52.33;43.00;;;;;;;;5085029;28;8867;-85
2023/01/23 03:49:27;;;;;;;;;65.33;47.67;;;;;;;;5078811;28;8899;-85
2023/01/23 03:51:56;;;;;;;;;59.00;47.33;;;;;;;;5089890;28;8995;-85
2023/01/23 03:54:24;;;;;;;;;48.00;43.33;;;;;;;;5088537;28;8819;-85
2023/01/23 03:56:51;;;;;;;;;62.67;47.67;;;;;;;;5083125;28;8872;-85
2023/01/23 03:59:19;;;;;;;;;64.33;48.00;;;;;;;;5088321;28;8880;-85
2023/01/23 04:01:48;;;;;;;;;54.33;43.67;;;;;;;;5078873;28;8789;-84
2023/01/23 04:04:17;;;;;;;;;55.00;42.33;;;;;;;;5085959;28;8846;-84
2023/01/23 04:06:46;;;;;;;;;59.33;45.67;;;;;;;;5067668;28;8978;-85
2023/01/23 04:09:13;;;;;;;;;54.33;45.00;;;;;;;;5086628;28;8858;-84
2023/01/23 04:11:41;;;;;;;;;69.00;52.00;;;;;;;;5074924;28;8883;-85
2023/01/23 04:14:08;;;;;;;;;59.33;47.33;;;;;;;;5111957;27;9659;-85
2023/01/23 04:16:38;;;;;;;;;62.00;46.67;;;;;;;;5081508;28;8819;-85
2023/01/23 04:19:08;;;;;;;;;56.00;44.00;;;;;;;;5079963;28;8873;-85
2023/01/23 04:21:37;;;;;;;;;66.00;54.00;;;;;;;;5091887;28;8840;-85
2023/01/23 04:24:05;;;;;;;;;60.67;45.67;;;;;;;;5087426;28;8848;-85
2023/01/23 04:26:33;;;;;;;;;59.67;46.00;;;;;;;;5084636;28;8837;-84
2023/01/23 04:29:01;;;;;;;;;43.00;41.67;;;;;;;;5082151;28;8869;-84
2023/01/23 04:31:29;;;;;;;;;58.33;47.00;;;;;;;;5084521;28;8779;-84
2023/01/23 04:33:56;;;;;;;;;60.00;48.67;;;;;;;;5087958;28;8862;-84
2023/01/23 04:36:24;;;;;;;;;45.00;40.00;;;;;;;;5085509;28;8862;-85
2023/01/23 04:38:53;;;;;;;;;61.67;43.33;;;;;;;;5083035;28;8910;-84
2023/01/23 04:41:22;;;;;;;;;57.67;47.00;;;;;;;;5087357;28;8842;-84
2023/01/23 04:43:50;;;;;;;;;59.00;46.00;;;;;;;;5092030;28;8879;-84
2023/01/23 04:46:17;;;;;;;;;38.00;32.67;;;;;;;;5080871;28;8872;-85
2023/01/23 04:48:45;;;;;;;;;55.67;44.67;;;;;;;;5114738;27;8840;-84
2023/01/23 04:51:12;;;;;;;;;50.67;42.67;;;;;;;;5065517;28;8927;-85
2023/01/23 04:53:40;;;;;;;;;58.33;44.67;;;;;;;;5089295;28;8820;-83
2023/01/23 04:56:09;;;;;;;;;48.67;42.00;;;;;;;;5088527;28;8860;-84
2023/01/23 04:58:37;;;;;;;;;60.67;48.00;;;;;;;;5091223;28;8838;-85
2023/01/23 05:01:08;;;;;;;;;60.00;46.00;;;;;;;;5069444;28;8820;-85
2023/01/23 05:03:36;;;;;;;;;52.33;43.67;;;;;;;;5091976;28;8832;-84
2023/01/23 05:06:05;;;;;;;;;41.33;36.00;;;;;;;;5091123;28;8849;-85
2023/01/23 05:08:33;;;;;;;;;54.00;44.33;;;;;;;;5086197;28;8877;-86
2023/01/23 05:11:01;;;;;;;;;34.67;34.00;;;;;;;;5087200;28;8853;-85
2023/01/23 05:13:30;;;;;;;;;46.33;41.33;;;;;;;;5092005;28;8932;-85
2023/01/23 05:15:58;;;;;;;;;50.00;42.00;;;;;;;;5086228;28;8860;-85
2023/01/23 05:18:25;;;;;;;;;43.00;36.33;;;;;;;;5090148;28;8846;-84
2023/01/23 05:20:53;;;;;;;;;35.00;31.67;;;;;;;;5085683;28;8866;-85
2023/01/23 05:23:21;;;;;;;;;42.00;39.00;;;;;;;;5088563;28;8838;-85
2023/01/23 05:25:48;;;;;;;;;44.67;42.67;;;;;;;;5085344;28;8943;-85
2023/01/23 05:28:16;;;;;;;;;46.33;40.33;;;;;;;;5089105;28;8844;-85
2023/01/23 05:30:45;;;;;;;;;35.33;30.33;;;;;;;;5096135;27;8772;-85
2023/01/23 05:33:13;;;;;;;;;43.33;39.00;;;;;;;;5089205;28;8850;-83
2023/01/23 05:35:40;;;;;;;;;47.33;37.67;;;;;;;;5084698;28;8867;-85
2023/01/23 05:38:08;;;;;;;;;53.00;42.67;;;;;;;;5087564;28;8850;-87
2023/01/23 05:40:38;;;;;;;;;50.67;42.67;;;;;;;;5088573;28;8879;-86
2023/01/23 05:43:10;;;;;;;;;44.33;37.33;;;;;;;;5094310;28;8846;-87
2023/01/23 05:45:40;;;;;;;;;42.00;38.67;;;;;;;;5089043;28;9267;-87
2023/01/23 05:48:12;;;;;;;;;38.33;37.00;;;;;;;;5076505;28;8866;-89
2023/01/23 05:50:42;;;;;;;;;38.33;35.67;;;;;;;;5088408;28;8856;-86
2023/01/23 05:53:10;;;;;;;;;51.00;44.00;;;;;;;;5089112;28;8851;-86
2023/01/23 05:55:38;;;;;;;;;41.00;34.33;;;;;;;;5093974;28;8965;-85
2023/01/23 05:58:06;;;;;;;;;42.33;38.00;;;;;;;;5081551;28;8859;-83
2023/01/23 06:00:37;;;;;;;;;43.33;39.00;;;;;;;;5100704;27;8774;-85
2023/01/23 06:03:06;;;;;;;;;42.33;37.67;;;;;;;;5095506;28;8951;-86
2023/01/23 06:05:40;;;;;;;;;44.33;37.00;;;;;;;;5089567;28;9808;-85
2023/01/23 06:08:09;;;;;;;;;44.67;40.67;;;;;;;;5090450;28;8948;-85
2023/01/23 06:10:37;;;;;;;;;39.33;39.33;;;;;;;;5090550;28;8832;-86
2023/01/23 06:13:08;;;;;;;;;43.67;36.67;;;;;;;;5071772;28;8849;-86
2023/01/23 06:15:38;;;;;;;;;34.00;31.00;;;;;;;;5087432;28;8998;-84
2023/01/23 06:18:09;;;;;;;;;48.33;40.33;;;;;;;;5086580;28;8884;-87
2023/01/23 06:20:39;;;;;;;;;39.33;34.00;;;;;;;;5087872;28;8883;-86
2023/01/23 06:23:07;;;;;;;;;62.67;50.33;;;;;;;;5094751;28;8985;-86
2023/01/23 06:25:36;;;;;;;;;57.00;47.00;;;;;;;;5081166;28;8834;-86
2023/01/23 06:28:04;;;;;;;;;52.67;44.33;;;;;;;;5078681;28;8842;-85
2023/01/23 06:30:32;;;;;;;;;39.67;33.00;;;;;;;;5087747;27;8816;-86
2023/01/23 06:32:59;;;;;;;;;46.67;42.67;;;;;;;;5090261;28;8846;-86
2023/01/23 06:35:27;;;;;;;;;46.33;39.33;;;;;;;;5083891;28;8854;-73
2023/01/23 06:37:56;;;;;;;;;36.00;33.67;;;;;;;;5085405;28;8858;-74
2023/01/23 06:40:23;;;;;;;;;43.00;35.00;;;;;;;;5088185;28;8881;-71
2023/01/23 06:42:54;;;;;;;;;42.00;35.67;;;;;;;;5084067;28;8879;-72
2023/01/23 06:45:22;;;;;;;;;50.00;42.67;;;;;;;;5090091;28;8850;-72
2023/01/23 06:47:49;;;;;;;;;47.67;40.33;;;;;;;;5085022;28;8862;-73
2023/01/23 06:50:17;;;;;;;;;45.67;36.33;;;;;;;;5081794;28;8846;-72
2023/01/23 06:52:45;;;;;;;;;40.33;35.33;;;;;;;;5084513;28;11517;-72
2023/01/23 06:55:14;;;;;;;;;45.67;38.33;;;;;;;;5089406;28;8863;-72
2023/01/23 06:57:41;;;;;;;;;45.00;35.33;;;;;;;;5080041;28;8943;-72
2023/01/23 07:00:10;;;;;;;;;46.67;37.67;;;;;;;;5091293;28;8862;-73
2023/01/23 07:02:39;;;;;;;;;37.33;30.33;;;;;;;;5085089;28;9618;-72
2023/01/23 07:05:07;;;;;;;;;47.67;39.67;;;;;;;;5083228;28;8858;-72
2023/01/23 07:07:34;;;;;;;;;28.33;28.00;;;;;;;;5084324;28;8842;-72
2023/01/23 07:10:02;;;;;;;;;33.67;30.33;;;;;;;;5084525;28;11524;-72
2023/01/23 07:12:31;;;;;;;;;39.33;35.67;;;;;;;;5088525;28;8840;-72
2023/01/23 07:14:58;;;;;;;;;48.33;43.33;;;;;;;;5083958;28;8838;-72
2023/01/23 07:17:26;;;;;;;;;39.33;31.00;;;;;;;;5084747;28;8849;-72
2023/01/23 07:19:53;;;;;;;;;42.33;33.00;;;;;;;;5081242;28;8852;-72
2023/01/23 07:22:33;;;;;;;;;38.00;32.33;;;;;;;;5083709;28;8953;-72
2023/01/23 07:25:00;;;;;;;;;36.67;35.33;;;;;;;;5090776;28;8889;-72
2023/01/23 07:27:28;;;;;;;;;42.33;38.33;;;;;;;;5079622;28;8875;-72
2023/01/23 07:29:57;;;;;;;;;34.33;28.00;;;;;;;;5086614;28;8858;-72
2023/01/23 07:32:24;;;;;;;;;30.67;26.33;;;;;;;;5084673;28;11612;-72
2023/01/23 07:34:52;;;;;;;;;35.33;30.00;;;;;;;;5091587;28;8900;-72
2023/01/23 07:37:20;;;;;;;;;46.00;36.00;;;;;;;;5085371;28;8854;-72
2023/01/23 07:39:48;;;;;;;;;38.00;34.00;;;;;;;;5092548;28;8872;-71
2023/01/23 07:42:16;;;;;;;;;41.67;38.00;;;;;;;;5077722;28;9735;-72
2023/01/23 07:44:43;;;;;;;;;37.33;34.33;;;;;;;;5083181;28;8849;-71
2023/01/23 07:47:12;;;;;;;;;30.33;28.33;;;;;;;;5088402;28;8876;-72
2023/01/23 07:49:39;;;;;;;;;33.00;29.33;;;;;;;;5083550;28;8893;-72
2023/01/23 07:52:07;;;;;;;;;42.33;39.67;;;;;;;;5091071;28;8852;-72
2023/01/23 07:54:34;;;;;;;;;40.67;38.00;;;;;;;;5087397;28;8850;-76
2023/01/23 07:57:02;;;;;;;;;43.67;39.33;;;;;;;;5083326;28;8842;-72
2023/01/23 07:59:29;;;;;;;;;47.00;36.67;;;;;;;;5085000;28;9295;-72
2023/01/23 08:01:57;;;;;;;;;32.00;32.00;;;;;;;;5086214;28;11500;-72
2023/01/23 08:04:25;;;;;;;;;39.33;35.33;;;;;;;;5082947;28;9698;-72
2023/01/23 08:06:53;;;;;;;;;44.67;36.67;;;;;;;;5083650;28;8846;-72
2023/01/23 08:09:20;;;;;;;;;43.67;40.33;;;;;;;;5081976;28;8877;-72
2023/01/23 08:11:47;;;;;;;;;37.33;33.00;;;;;;;;5084094;28;8885;-72
2023/01/23 08:14:15;;;;;;;;;40.00;32.67;;;;;;;;5082138;28;8838;-72
2023/01/23 08:16:42;;;;;;;;;35.33;25.67;;;;;;;;5079783;28;8834;-72
2023/01/23 08:19:10;;;;;;;;;32.00;27.67;;;;;;;;5078611;28;8866;-73
2023/01/23 08:21:39;;;;;;;;;36.00;36.00;;;;;;;;5080133;28;8847;-74
2023/01/23 08:24:07;;;;;;;;;39.00;33.67;;;;;;;;5079153;28;8830;-72
2023/01/23 08:26:34;;;;;;;;;47.67;35.33;;;;;;;;5086035;28;9663;-73
2023/01/23 08:29:02;;;;;;;;;34.00;32.67;;;;;;;;5068647;28;8836;-73
2023/01/23 08:31:30;;;;;;;;;46.33;40.67;;;;;;;;5092904;27;9240;-72
2023/01/23 08:33:57;;;;;;;;;36.67;35.33;;;;;;;;5081589;28;9915;-73
2023/01/23 08:36:25;;;;;;;;;36.00;27.67;;;;;;;;5083411;28;8871;-72
2023/01/23 08:38:54;;;;;;;;;35.33;33.33;;;;;;;;5085282;28;8901;-72
2023/01/23 08:41:22;;;;;;;;;49.00;39.67;;;;;;;;5074415;28;8851;-72
2023/01/23 08:43:49;;;;;;;;;44.00;40.00;;;;;;;;5077027;28;8844;-72
2023/01/23 08:46:17;;;;;;;;;44.33;38.67;;;;;;;;5079561;28;8854;-72
2023/01/23 08:48:44;;;;;;;;;41.33;35.33;;;;;;;;5087091;28;8818;-72
2023/01/23 08:51:13;;;;;;;;;40.33;33.33;;;;;;;;5084662;28;8836;-71
2023/01/23 08:53:41;;;;;;;;;43.00;37.67;;;;;;;;5089595;28;8890;-73
2023/01/23 08:56:15;;;;;;;;;48.00;40.00;;;;;;;;5088754;28;8799;-72
2023/01/23 08:58:42;;;;;;;;;47.33;39.67;;;;;;;;5087589;28;8831;-72
2023/01/23 09:01:12;;;;;;;;;50.67;42.33;;;;;;;;5081814;28;8824;-71
2023/01/23 09:03:39;;;;;;;;;47.67;41.00;;;;;;;;5068044;28;9692;-71
2023/01/23 09:06:07;;;;;;;;;49.33;36.67;;;;;;;;5085953;28;8915;-72
2023/01/23 09:08:35;;;;;;;;;43.00;40.33;;;;;;;;5076770;28;8841;-72
2023/01/23 09:11:03;;;;;;;;;53.00;43.67;;;;;;;;5081385;28;9380;-72
2023/01/23 09:13:32;;;;;;;;;46.33;41.00;;;;;;;;5084899;28;8893;-71
2023/01/23 09:16:00;;;;;;;;;33.67;29.00;;;;;;;;5079886;28;8839;-71
2023/01/23 09:18:28;;;;;;;;;50.00;40.00;;;;;;;;5071265;28;8830;-71
2023/01/23 09:20:55;;;;;;;;;45.67;42.00;;;;;;;;5087743;28;8838;-71
2023/01/23 09:23:23;;;;;;;;;42.33;37.33;;;;;;;;5071050;28;8850;-71
2023/01/23 09:25:51;;;;;;;;;46.33;40.00;;;;;;;;5072220;28;8855;-71
2023/01/23 09:28:18;;;;;;;;;46.00;41.67;;;;;;;;5081845;28;8880;-71
2023/01/23 09:30:47;;;;;;;;;52.33;44.00;;;;;;;;5073148;28;8810;-71
2023/01/23 09:33:15;;;;;;;;;42.00;40.00;;;;;;;;5085830;28;8824;-71
2023/01/23 09:35:44;;;;;;;;;47.33;41.00;;;;;;;;5080497;28;9248;-71
2023/01/23 09:38:11;;;;;;;;;44.33;39.00;;;;;;;;5084467;28;8894;-71
2023/01/23 09:40:45;;;;;;;;;37.67;29.33;;;;;;;;5088343;28;8848;-71
2023/01/23 09:43:17;;;;;;;;;48.00;43.00;;;;;;;;5085636;28;9157;-72
2023/01/23 09:45:51;;;;;;;;;44.67;32.00;;;;;;;;5088125;28;8822;-72
2023/01/23 09:48:23;;;;;;;;;61.00;46.00;;;;;;;;5083124;28;8882;-72
2023/01/23 09:50:58;;;;;;;;;38.00;35.67;;;;;;;;5070432;28;8904;-72
2023/01/23 09:53:29;;;;;;;;;47.00;40.67;;;;;;;;5064344;28;8897;-71
2023/01/23 09:56:00;;;;;;;;;34.00;24.00;;;;;;;;5089184;28;8987;-71
2023/01/23 09:58:32;;;;;;;;;42.33;39.00;;;;;;;;5091749;28;8848;-70
2023/01/23 10:01:01;;;;;;;;;43.67;33.67;;;;;;;;5071545;28;9610;-70
2023/01/23 10:03:31;;;;;;;;;48.33;41.33;;;;;;;;5085605;28;8811;-70
2023/01/23 10:06:08;;;;;;;;;46.67;41.67;;;;;;;;5081343;28;8830;-67
2023/01/23 10:08:45;;;;;;;;;41.00;34.33;;;;;;;;5076448;28;8869;-70
2023/01/23 10:11:20;;;;;;;;;45.33;40.33;;;;;;;;5073045;28;8884;-71
2023/01/23 10:14:05;;;;;;;;;49.33;40.33;;;;;;;;5080208;28;8849;-71
2023/01/23 10:16:49;;;;;;;;;42.33;40.00;;;;;;;;5086461;28;8891;-70
2023/01/23 10:19:24;;;;;;;;;38.67;34.67;;;;;;;;5079311;28;9017;-71
2023/01/23 10:21:59;;;;;;;;;39.67;35.67;;;;;;;;5084492;28;11541;-71
2023/01/23 10:24:41;;;;;;;;;36.67;34.00;;;;;;;;5088850;28;12347;-71
2023/01/23 10:27:18;;;;;;;;;36.33;35.33;;;;;;;;5087573;28;11501;-70
2023/01/23 10:29:49;;;;;;;;;38.33;35.67;;;;;;;;5083317;28;11619;-71
2023/01/23 10:32:37;;;;;;;;;41.67;33.67;;;;;;;;5079866;27;11601;-71
2023/01/23 10:35:10;;;;;;;;;41.00;31.67;;;;;;;;5078669;28;11531;-71
2023/01/23 10:37:42;;;;;;;;;39.67;35.33;;;;;;;;5078892;28;8842;-71
2023/01/23 10:40:14;;;;;;;;;40.00;37.00;;;;;;;;5080710;28;11631;-75
2023/01/23 10:42:42;;;;;;;;;37.33;35.67;;;;;;;;5080867;28;8859;-72
2023/01/23 10:45:18;;;;;;;;;51.00;40.33;;;;;;;;5083687;28;11538;-74
2023/01/23 10:47:48;;;;;;;;;40.67;36.33;;;;;;;;5086093;28;8835;-74
2023/01/23 10:50:16;;;;;;;;;37.67;33.67;;;;;;;;5082437;28;11547;-74
2023/01/23 10:52:45;;;;;;;;;36.00;34.67;;;;;;;;5077657;28;8880;-74
2023/01/23 10:55:29;;;;;;;;;45.33;39.00;;;;;;;;5089406;28;8874;-72
2023/01/23 10:58:01;;;;;;;;;36.67;36.67;;;;;;;;5087042;28;8852;-73
2023/01/23 11:00:36;;;;;;;;;36.67;35.67;;;;;;;;5086956;27;11575;-72
2023/01/23 11:03:30;;;;;;;;;46.67;36.33;;;;;;;;5096614;28;8848;-72
2023/01/23 11:06:02;;;;;;;;;42.00;39.33;;;;;;;;5074002;28;8865;-73
2023/01/23 11:08:31;;;;;;;;;34.67;30.00;;;;;;;;5079306;27;8838;-73
2023/01/23 11:11:21;;;;;;;;;36.67;35.33;;;;;;;;5079706;28;11618;-72
2023/01/23 11:13:50;;;;;;;;;33.67;32.67;;;;;;;;5071495;28;11549;-71
2023/01/23 11:16:20;;;;;;;;;39.00;31.00;;;;;;;;5078608;28;11559;-74
2023/01/23 11:18:54;;;;;;;;;42.00;35.33;;;;;;;;5082702;28;8862;-73
2023/01/23 11:21:22;;;;;;;;;44.33;38.00;;;;;;;;5085235;28;11559;-74
2023/01/23 11:23:50;;;;;;;;;34.67;32.67;;;;;;;;5085993;28;8877;-73
2023/01/23 11:26:34;;;;;;;;;39.67;34.33;;;;;;;;5082795;28;8828;-74
2023/01/23 11:29:02;;;;;;;;;46.00;38.67;;;;;;;;5106874;27;11654;-74
2023/01/23 11:31:31;;;;;;;;;31.00;28.00;;;;;;;;5083876;27;8792;-72
2023/01/23 11:34:04;;;;;;;;;37.33;29.33;;;;;;;;5086930;28;8866;-74
2023/01/23 11:36:41;;;;;;;;;34.67;33.33;;;;;;;;5087248;28;11641;-72
2023/01/23 11:39:20;;;;;;;;;37.33;31.67;;;;;;;;5087195;28;11562;-75
2023/01/23 11:41:47;;;;;;;;;59.67;41.33;;;;;;;;5086365;28;8864;-73
2023/01/23 11:44:18;;;;;;;;;42.00;37.00;;;;;;;;5072929;28;8867;-75
2023/01/23 11:47:12;;;;;;;;;44.33;37.67;;;;;;;;5082505;28;8892;-72
2023/01/23 11:49:59;;;;;;;;;41.00;34.00;;;;;;;;5085126;28;8829;-74
2023/01/23 11:52:36;;;;;;;;;58.67;45.67;;;;;;;;5087639;28;8838;-74
2023/01/23 11:55:41;;;;;;;;;46.33;39.67;;;;;;;;5084129;28;8958;-75
2023/01/23 11:58:17;;;;;;;;;37.67;32.00;;;;;;;;5077977;28;11526;-74
2023/01/23 12:00:47;;;;;;;;;34.00;27.33;;;;;;;;5084676;28;11524;-75
2023/01/23 12:03:44;;;;;;;;;29.50;25.50;;;;;;;;5080060;28;11633;-72
2023/01/23 12:06:40;;;;;;;;;43.00;38.67;;;;;;;;5066337;28;11554;-73
2023/01/23 12:09:12;;;;;;;;;37.00;29.33;;;;;;;;5051512;28;11688;-73
2023/01/23 12:11:50;;;;;;;;;37.25;33.75;;;;;;;;5083445;28;12362;-73
2023/01/23 12:14:23;;;;;;;;;34.75;30.00;;;;;;;;5077745;28;11620;-73
2023/01/23 12:17:03;;;;;;;;;42.25;36.75;;;;;;;;5082842;28;11542;-73
2023/01/23 12:19:46;;;;;;;;;34.00;30.00;;;;;;;;5082451;28;11717;-73
2023/01/23 12:22:19;;;;;;;;;38.75;36.00;;;;;;;;5075473;28;11546;-73
2023/01/23 12:24:58;;;;;;;;;43.25;35.25;;;;;;;;5079840;28;11536;-72
2023/01/23 12:27:35;;;;;;;;;40.00;35.75;;;;;;;;5079664;28;12339;-72
2023/01/23 12:30:31;;;;;;;;;39.00;34.75;;;;;;;;5084245;28;11587;-72
2023/01/23 12:33:13;;;;;;;;;37.00;34.25;;;;;;;;5077873;28;11484;-72
2023/01/23 12:35:51;;;;;;;;;29.50;29.50;;;;;;;;5081305;28;11614;-72
2023/01/23 12:38:26;;;;;;;;;37.75;31.75;;;;;;;;5090073;28;11521;-72
2023/01/23 12:41:05;;;;;;;;;55.67;45.67;;;;;;;;5084264;28;11570;-72
2023/01/23 12:43:38;;;;;;;;;42.00;35.50;;;;;;;;5078048;28;8878;-71
2023/01/23 12:46:10;;;;;;;;;45.33;40.33;;;;;;;;5077140;28;11546;-71
2023/01/23 12:48:41;;;;;;;;;49.33;36.67;;;;;;;;5080870;28;11540;-71
2023/01/23 12:51:13;;;;;;;;;37.50;33.50;;;;;;;;5081953;28;11527;-72
2023/01/23 12:53:42;;;;;;;;;31.75;30.50;;;;;;;;5086707;28;11566;-72
2023/01/23 12:56:14;;;;;;;;;37.50;35.50;;;;;;;;5078991;28;11607;-72
2023/01/23 12:58:47;;;;;;;;;41.75;38.00;;;;;;;;5078997;28;11567;-72
2023/01/23 13:01:25;;;;;;;;;35.75;34.00;;;;;;;;5079500;28;11502;-71
2023/01/23 13:04:28;;;;;;;;;38.50;32.00;;;;;;;;5077807;28;11507;-72
2023/01/23 13:07:20;;;;;;;;;44.50;37.25;;;;;;;;5053674;28;11545;-72
2023/01/23 13:10:07;;;;;;;;;35.75;31.00;;;;;;;;5055259;28;11550;-72
2023/01/23 13:12:35;;;;;;;;;46.50;36.25;;;;;;;;5074725;28;11460;-72
2023/01/23 13:15:31;;;;;;;;;35.50;33.25;;;;;;;;5082434;28;11537;-72
2023/01/23 13:18:00;;;;;;;;;44.33;40.67;;;;;;;;5081610;28;11493;-72
2023/01/23 13:23:28;;;;;;;;;43.75;39.50;;;;;;;;5080819;28;11528;-72
2023/01/23 13:26:27;;;;;;;;;35.75;32.00;;;;;;;;5073284;28;11526;-72
2023/01/23 13:29:02;;;;;;;;;49.67;44.00;;;;;;;;5080126;28;11556;-72
2023/01/23 13:31:45;;;;;;;;;35.25;33.75;;;;;;;;5067120;28;11519;-72
2023/01/23 13:34:35;;;;;;;;;48.75;40.25;;;;;;;;5081038;28;11470;-72
2023/01/23 13:37:43;;;;;;;;;55.75;41.75;;;;;;;;5083840;28;12316;-72
2023/01/23 13:40:16;;;;;;;;;38.50;34.00;;;;;;;;5082716;28;11573;-72
2023/01/23 13:42:44;;;;;;;;;35.25;25.75;;;;;;;;5087485;28;11550;-72
2023/01/23 13:45:22;;;;;;;;;54.33;44.00;;;;;;;;5085650;28;11527;-72
2023/01/23 13:51:05;;;;;;;;;44.25;40.50;;;;;;;;5050452;28;11527;-71
2023/01/23 13:59:13;;;;;;;;;43.75;37.50;;;;;;;;5081407;28;11450;-72
2023/01/23 14:10:17;;;;;;;;;40.50;37.50;;;;;;;;5083943;28;11522;-72
2023/01/23 14:12:45;;;;;;;;;42.50;38.75;;;;;;;;5084715;28;11552;-72
2023/01/23 14:18:33;;;;;;;;;39.75;33.50;;;;;;;;5082947;28;11545;-72
2023/01/23 14:21:05;;;;;;;;;36.50;35.00;;;;;;;;5081498;28;11542;-72
2023/01/23 14:23:37;;;;;;;;;41.00;36.25;;;;;;;;5086933;28;11525;-72
2023/01/23 14:26:06;;;;;;;;;49.67;44.33;;;;;;;;5077870;28;11535;-72
2023/01/23 14:28:34;;;;;;;;;41.33;39.67;;;;;;;;5085111;28;12316;-72
2023/01/23 14:31:05;;;;;;;;;38.00;33.00;;;;;;;;5075520;28;11617;-72
2023/01/23 14:33:41;;;;;;;;;57.33;45.00;;;;;;;;5081179;28;11540;-72
2023/01/23 14:36:15;;;;;;;;;38.25;32.75;;;;;;;;5089462;28;11584;-72
2023/01/23 14:38:45;;;;;;;;;23.50;21.00;;;;;;;;5079804;28;11577;-72
2023/01/23 14:41:13;;;;;;;;;27.00;25.25;;;;;;;;5082164;28;11570;-72
2023/01/23 14:43:42;;;;;;;;;28.00;28.00;;;;;;;;5080350;28;11568;-72
2023/01/23 14:46:16;;;;;;;;;42.50;34.25;;;;;;;;5063372;28;11547;-72
2023/01/23 14:48:45;;;;;;;;;36.50;27.25;;;;;;;;5061557;28;11524;-72
2023/01/23 14:51:19;;;;;;;;;32.00;28.00;;;;;;;;5078824;28;11568;-73
2023/01/23 14:53:54;;;;;;;;;31.75;25.25;;;;;;;;5077894;28;11525;-72
2023/01/23 14:56:26;;;;;;;;;34.75;26.25;;;;;;;;5080209;28;11506;-72
2023/01/23 14:58:54;;;;;;;;;36.50;31.25;;;;;;;;5081561;28;11586;-72
2023/01/23 15:01:24;;;;;;;;;35.50;30.25;;;;;;;;5085821;28;11557;-72
2023/01/23 15:04:07;;;;;;;;;23.00;22.50;;;;;;;;5079936;28;11541;-78
2023/01/23 15:06:35;;;;;;;;;30.75;30.75;;;;;;;;5080270;28;11586;-71
2023/01/23 15:09:11;;;;;;;;;38.25;34.50;;;;;;;;5079264;28;11671;-72
2023/01/23 15:11:39;;;;;;;;;30.00;26.75;;;;;;;;5084379;28;11576;-70
2023/01/23 15:14:09;;;;;;;;;33.75;30.50;;;;;;;;5073883;28;11579;-73
2023/01/23 15:16:40;;;;;;;;;28.00;26.25;;;;;;;;5092521;28;11681;-70
2023/01/23 15:19:17;;;;;;;;;31.25;31.25;;;;;;;;5086260;28;11598;-74
2023/01/23 15:21:44;;;;;;;;;32.75;27.75;;;;;;;;5080791;28;11570;-72